<?xml version="1.0" encoding="UTF-8" ?>
<gpx version="1.1" xmlns:xsi="http://www.w3.org/2001/XMLSchema-instance" 
    xmlns="http://www.topografix.com/GPX/1/1" 
    xsi:schemaLocation="http://www.topografix.com/GPX/1/1 http://www.topografix.com/GPX/1/1/gpx.xsd" 
    creator="Openrunner - https://www.openrunner.com" >	<trk>
						<name>11245806-Balade Verte - Circuit du bourg - SG1</name>
						<trkseg>
					<trkpt lat="46.752440" lon="5.246920">
						<ele>210</ele>
						<time>2020-04-30T15:49:50Z</time>
					</trkpt>
					<trkpt lat="46.751810" lon="5.246930">
						<ele>208</ele>
						<time>2020-04-30T15:51:14Z</time>
					</trkpt>
					<trkpt lat="46.751260" lon="5.246940">
						<ele>208</ele>
						<time>2020-04-30T15:52:27Z</time>
					</trkpt>
					<trkpt lat="46.750660" lon="5.247020">
						<ele>207</ele>
						<time>2020-04-30T15:53:48Z</time>
					</trkpt>
					<trkpt lat="46.750210" lon="5.247080">
						<ele>206</ele>
						<time>2020-04-30T15:54:48Z</time>
					</trkpt>
					<trkpt lat="46.749490" lon="5.247250">
						<ele>205</ele>
						<time>2020-04-30T15:56:26Z</time>
					</trkpt>
					<trkpt lat="46.749390" lon="5.247370">
						<ele>205</ele>
						<time>2020-04-30T15:56:43Z</time>
					</trkpt>
					<trkpt lat="46.749130" lon="5.248220">
						<ele>202</ele>
						<time>2020-04-30T15:58:08Z</time>
					</trkpt>
					<trkpt lat="46.748900" lon="5.248780">
						<ele>202</ele>
						<time>2020-04-30T15:59:08Z</time>
					</trkpt>
					<trkpt lat="46.748840" lon="5.248840">
						<ele>202</ele>
						<time>2020-04-30T15:59:17Z</time>
					</trkpt>
					<trkpt lat="46.748730" lon="5.248830">
						<ele>202</ele>
						<time>2020-04-30T15:59:32Z</time>
					</trkpt>
					<trkpt lat="46.748510" lon="5.248710">
						<ele>202</ele>
						<time>2020-04-30T16:00:03Z</time>
					</trkpt>
					<trkpt lat="46.748390" lon="5.248560">
						<ele>203</ele>
						<time>2020-04-30T16:00:24Z</time>
					</trkpt>
					<trkpt lat="46.748220" lon="5.248120">
						<ele>203</ele>
						<time>2020-04-30T16:01:11Z</time>
					</trkpt>
					<trkpt lat="46.748220" lon="5.248630">
						<ele>203</ele>
						<time>2020-04-30T16:01:57Z</time>
					</trkpt>
					<trkpt lat="46.747930" lon="5.249300">
						<ele>202</ele>
						<time>2020-04-30T16:03:10Z</time>
					</trkpt>
					<trkpt lat="46.747870" lon="5.249400">
						<ele>202</ele>
						<time>2020-04-30T16:03:22Z</time>
					</trkpt>
					<trkpt lat="46.747860" lon="5.249480">
						<ele>201</ele>
						<time>2020-04-30T16:03:29Z</time>
					</trkpt>
					<trkpt lat="46.747860" lon="5.249640">
						<ele>201</ele>
						<time>2020-04-30T16:03:44Z</time>
					</trkpt>
					<trkpt lat="46.748060" lon="5.251110">
						<ele>201</ele>
						<time>2020-04-30T16:06:01Z</time>
					</trkpt>
					<trkpt lat="46.748040" lon="5.251230">
						<ele>201</ele>
						<time>2020-04-30T16:06:12Z</time>
					</trkpt>
					<trkpt lat="46.748000" lon="5.251340">
						<ele>201</ele>
						<time>2020-04-30T16:06:24Z</time>
					</trkpt>
					<trkpt lat="46.747910" lon="5.251430">
						<ele>201</ele>
						<time>2020-04-30T16:06:38Z</time>
					</trkpt>
					<trkpt lat="46.747800" lon="5.251460">
						<ele>201</ele>
						<time>2020-04-30T16:06:53Z</time>
					</trkpt>
					<trkpt lat="46.747720" lon="5.251460">
						<ele>201</ele>
						<time>2020-04-30T16:07:04Z</time>
					</trkpt>
					<trkpt lat="46.747670" lon="5.251390">
						<ele>201</ele>
						<time>2020-04-30T16:07:13Z</time>
					</trkpt>
					<trkpt lat="46.747530" lon="5.250600">
						<ele>201</ele>
						<time>2020-04-30T16:08:28Z</time>
					</trkpt>
					<trkpt lat="46.747440" lon="5.250220">
						<ele>200</ele>
						<time>2020-04-30T16:09:04Z</time>
					</trkpt>
					<trkpt lat="46.747350" lon="5.249930">
						<ele>200</ele>
						<time>2020-04-30T16:09:34Z</time>
					</trkpt>
					<trkpt lat="46.747240" lon="5.249780">
						<ele>200</ele>
						<time>2020-04-30T16:09:54Z</time>
					</trkpt>
					<trkpt lat="46.747110" lon="5.249660">
						<ele>200</ele>
						<time>2020-04-30T16:10:14Z</time>
					</trkpt>
					<trkpt lat="46.747040" lon="5.249630">
						<ele>200</ele>
						<time>2020-04-30T16:10:24Z</time>
					</trkpt>
					<trkpt lat="46.746170" lon="5.249520">
						<ele>201</ele>
						<time>2020-04-30T16:12:20Z</time>
					</trkpt>
					<trkpt lat="46.746100" lon="5.249500">
						<ele>201</ele>
						<time>2020-04-30T16:12:30Z</time>
					</trkpt>
					<trkpt lat="46.746050" lon="5.249440">
						<ele>201</ele>
						<time>2020-04-30T16:12:39Z</time>
					</trkpt>
					<trkpt lat="46.746030" lon="5.249350">
						<ele>202</ele>
						<time>2020-04-30T16:12:47Z</time>
					</trkpt>
					<trkpt lat="46.746110" lon="5.249160">
						<ele>201</ele>
						<time>2020-04-30T16:13:08Z</time>
					</trkpt>
					<trkpt lat="46.746190" lon="5.249070">
						<ele>201</ele>
						<time>2020-04-30T16:13:21Z</time>
					</trkpt>
					<trkpt lat="46.746300" lon="5.248980">
						<ele>201</ele>
						<time>2020-04-30T16:13:38Z</time>
					</trkpt>
					<trkpt lat="46.746420" lon="5.248920">
						<ele>201</ele>
						<time>2020-04-30T16:13:55Z</time>
					</trkpt>
					<trkpt lat="46.746540" lon="5.248810">
						<ele>201</ele>
						<time>2020-04-30T16:14:14Z</time>
					</trkpt>
					<trkpt lat="46.746640" lon="5.248680">
						<ele>201</ele>
						<time>2020-04-30T16:14:32Z</time>
					</trkpt>
					<trkpt lat="46.746690" lon="5.248530">
						<ele>202</ele>
						<time>2020-04-30T16:14:47Z</time>
					</trkpt>
					<trkpt lat="46.746730" lon="5.248270">
						<ele>202</ele>
						<time>2020-04-30T16:15:11Z</time>
					</trkpt>
					<trkpt lat="46.746750" lon="5.248160">
						<ele>202</ele>
						<time>2020-04-30T16:15:22Z</time>
					</trkpt>
					<trkpt lat="46.746790" lon="5.248070">
						<ele>203</ele>
						<time>2020-04-30T16:15:32Z</time>
					</trkpt>
					<trkpt lat="46.746820" lon="5.247940">
						<ele>203</ele>
						<time>2020-04-30T16:15:44Z</time>
					</trkpt>
					<trkpt lat="46.746800" lon="5.247700">
						<ele>203</ele>
						<time>2020-04-30T16:16:06Z</time>
					</trkpt>
					<trkpt lat="46.747030" lon="5.247630">
						<ele>204</ele>
						<time>2020-04-30T16:16:38Z</time>
					</trkpt>
					<trkpt lat="46.747180" lon="5.247590">
						<ele>204</ele>
						<time>2020-04-30T16:16:58Z</time>
					</trkpt>
					<trkpt lat="46.747210" lon="5.247530">
						<ele>204</ele>
						<time>2020-04-30T16:17:05Z</time>
					</trkpt>
					<trkpt lat="46.747210" lon="5.247420">
						<ele>204</ele>
						<time>2020-04-30T16:17:15Z</time>
					</trkpt>
					<trkpt lat="46.747240" lon="5.247210">
						<ele>203</ele>
						<time>2020-04-30T16:17:34Z</time>
					</trkpt>
					<trkpt lat="46.747390" lon="5.246670">
						<ele>201</ele>
						<time>2020-04-30T16:18:28Z</time>
					</trkpt>
					<trkpt lat="46.747450" lon="5.246300">
						<ele>201</ele>
						<time>2020-04-30T16:19:02Z</time>
					</trkpt>
					<trkpt lat="46.747480" lon="5.245530">
						<ele>200</ele>
						<time>2020-04-30T16:20:13Z</time>
					</trkpt>
					<trkpt lat="46.747440" lon="5.245440">
						<ele>200</ele>
						<time>2020-04-30T16:20:23Z</time>
					</trkpt>
					<trkpt lat="46.747960" lon="5.245090">
						<ele>201</ele>
						<time>2020-04-30T16:21:39Z</time>
					</trkpt>
					<trkpt lat="46.748320" lon="5.244910">
						<ele>201</ele>
						<time>2020-04-30T16:22:30Z</time>
					</trkpt>
					<trkpt lat="46.748790" lon="5.244720">
						<ele>203</ele>
						<time>2020-04-30T16:23:35Z</time>
					</trkpt>
					<trkpt lat="46.749090" lon="5.244650">
						<ele>204</ele>
						<time>2020-04-30T16:24:16Z</time>
					</trkpt>
					<trkpt lat="46.749630" lon="5.244480">
						<ele>205</ele>
						<time>2020-04-30T16:25:29Z</time>
					</trkpt>
					<trkpt lat="46.750230" lon="5.244270">
						<ele>207</ele>
						<time>2020-04-30T16:26:52Z</time>
					</trkpt>
					<trkpt lat="46.750440" lon="5.244130">
						<ele>208</ele>
						<time>2020-04-30T16:27:22Z</time>
					</trkpt>
					<trkpt lat="46.750770" lon="5.243820">
						<ele>209</ele>
						<time>2020-04-30T16:28:15Z</time>
					</trkpt>
					<trkpt lat="46.750870" lon="5.243720">
						<ele>210</ele>
						<time>2020-04-30T16:28:31Z</time>
					</trkpt>
					<trkpt lat="46.751160" lon="5.243580">
						<ele>210</ele>
						<time>2020-04-30T16:29:12Z</time>
					</trkpt>
					<trkpt lat="46.751980" lon="5.243300">
						<ele>210</ele>
						<time>2020-04-30T16:31:04Z</time>
					</trkpt>
					<trkpt lat="46.752150" lon="5.243240">
						<ele>210</ele>
						<time>2020-04-30T16:31:27Z</time>
					</trkpt>
					<trkpt lat="46.752090" lon="5.242600">
						<ele>209</ele>
						<time>2020-04-30T16:32:26Z</time>
					</trkpt>
					<trkpt lat="46.752180" lon="5.242650">
						<ele>209</ele>
						<time>2020-04-30T16:32:39Z</time>
					</trkpt>
					<trkpt lat="46.752680" lon="5.242910">
						<ele>209</ele>
						<time>2020-04-30T16:33:50Z</time>
					</trkpt>
					<trkpt lat="46.753100" lon="5.241160">
						<ele>206</ele>
						<time>2020-04-30T16:36:40Z</time>
					</trkpt>
					<trkpt lat="46.753160" lon="5.240840">
						<ele>206</ele>
						<time>2020-04-30T16:37:10Z</time>
					</trkpt>
					<trkpt lat="46.753350" lon="5.240410">
						<ele>205</ele>
						<time>2020-04-30T16:37:57Z</time>
					</trkpt>
					<trkpt lat="46.753500" lon="5.240140">
						<ele>205</ele>
						<time>2020-04-30T16:38:29Z</time>
					</trkpt>
					<trkpt lat="46.754100" lon="5.239470">
						<ele>204</ele>
						<time>2020-04-30T16:40:09Z</time>
					</trkpt>
					<trkpt lat="46.755180" lon="5.238290">
						<ele>202</ele>
						<time>2020-04-30T16:43:09Z</time>
					</trkpt>
					<trkpt lat="46.755680" lon="5.237740">
						<ele>202</ele>
						<time>2020-04-30T16:44:33Z</time>
					</trkpt>
					<trkpt lat="46.755860" lon="5.237540">
						<ele>202</ele>
						<time>2020-04-30T16:45:03Z</time>
					</trkpt>
					<trkpt lat="46.755970" lon="5.237700">
						<ele>202</ele>
						<time>2020-04-30T16:45:24Z</time>
					</trkpt>
					<trkpt lat="46.756230" lon="5.238010">
						<ele>201</ele>
						<time>2020-04-30T16:46:09Z</time>
					</trkpt>
					<trkpt lat="46.756530" lon="5.238290">
						<ele>200</ele>
						<time>2020-04-30T16:46:56Z</time>
					</trkpt>
					<trkpt lat="46.756960" lon="5.238440">
						<ele>199</ele>
						<time>2020-04-30T16:47:55Z</time>
					</trkpt>
					<trkpt lat="46.757200" lon="5.238510">
						<ele>199</ele>
						<time>2020-04-30T16:48:28Z</time>
					</trkpt>
					<trkpt lat="46.757940" lon="5.238520">
						<ele>197</ele>
						<time>2020-04-30T16:50:07Z</time>
					</trkpt>
					<trkpt lat="46.758780" lon="5.238620">
						<ele>197</ele>
						<time>2020-04-30T16:51:59Z</time>
					</trkpt>
					<trkpt lat="46.758990" lon="5.238640">
						<ele>197</ele>
						<time>2020-04-30T16:52:27Z</time>
					</trkpt>
					<trkpt lat="46.759140" lon="5.238580">
						<ele>197</ele>
						<time>2020-04-30T16:52:48Z</time>
					</trkpt>
					<trkpt lat="46.759230" lon="5.238650">
						<ele>197</ele>
						<time>2020-04-30T16:53:02Z</time>
					</trkpt>
					<trkpt lat="46.759450" lon="5.238960">
						<ele>198</ele>
						<time>2020-04-30T16:53:42Z</time>
					</trkpt>
					<trkpt lat="46.759480" lon="5.239040">
						<ele>198</ele>
						<time>2020-04-30T16:53:51Z</time>
					</trkpt>
					<trkpt lat="46.759510" lon="5.239150">
						<ele>199</ele>
						<time>2020-04-30T16:54:02Z</time>
					</trkpt>
					<trkpt lat="46.759500" lon="5.239230">
						<ele>199</ele>
						<time>2020-04-30T16:54:09Z</time>
					</trkpt>
					<trkpt lat="46.759440" lon="5.239360">
						<ele>199</ele>
						<time>2020-04-30T16:54:23Z</time>
					</trkpt>
					<trkpt lat="46.759330" lon="5.239550">
						<ele>199</ele>
						<time>2020-04-30T16:54:46Z</time>
					</trkpt>
					<trkpt lat="46.759280" lon="5.239640">
						<ele>199</ele>
						<time>2020-04-30T16:54:57Z</time>
					</trkpt>
					<trkpt lat="46.759220" lon="5.239730">
						<ele>199</ele>
						<time>2020-04-30T16:55:08Z</time>
					</trkpt>
					<trkpt lat="46.758820" lon="5.240250">
						<ele>199</ele>
						<time>2020-04-30T16:56:20Z</time>
					</trkpt>
					<trkpt lat="46.758700" lon="5.240460">
						<ele>199</ele>
						<time>2020-04-30T16:56:45Z</time>
					</trkpt>
					<trkpt lat="46.758610" lon="5.240680">
						<ele>199</ele>
						<time>2020-04-30T16:57:08Z</time>
					</trkpt>
					<trkpt lat="46.758580" lon="5.240780">
						<ele>199</ele>
						<time>2020-04-30T16:57:18Z</time>
					</trkpt>
					<trkpt lat="46.758550" lon="5.240910">
						<ele>199</ele>
						<time>2020-04-30T16:57:31Z</time>
					</trkpt>
					<trkpt lat="46.758550" lon="5.241110">
						<ele>199</ele>
						<time>2020-04-30T16:57:49Z</time>
					</trkpt>
					<trkpt lat="46.758570" lon="5.241250">
						<ele>199</ele>
						<time>2020-04-30T16:58:02Z</time>
					</trkpt>
					<trkpt lat="46.758710" lon="5.241800">
						<ele>200</ele>
						<time>2020-04-30T16:58:56Z</time>
					</trkpt>
					<trkpt lat="46.758750" lon="5.241980">
						<ele>200</ele>
						<time>2020-04-30T16:59:13Z</time>
					</trkpt>
					<trkpt lat="46.758750" lon="5.242060">
						<ele>200</ele>
						<time>2020-04-30T16:59:20Z</time>
					</trkpt>
					<trkpt lat="46.758720" lon="5.242230">
						<ele>200</ele>
						<time>2020-04-30T16:59:36Z</time>
					</trkpt>
					<trkpt lat="46.758690" lon="5.242320">
						<ele>200</ele>
						<time>2020-04-30T16:59:45Z</time>
					</trkpt>
					<trkpt lat="46.758280" lon="5.243210">
						<ele>201</ele>
						<time>2020-04-30T17:01:23Z</time>
					</trkpt>
					<trkpt lat="46.758230" lon="5.243350">
						<ele>201</ele>
						<time>2020-04-30T17:01:38Z</time>
					</trkpt>
					<trkpt lat="46.758330" lon="5.243350">
						<ele>201</ele>
						<time>2020-04-30T17:01:51Z</time>
					</trkpt>
					<trkpt lat="46.758160" lon="5.244770">
						<ele>200</ele>
						<time>2020-04-30T17:04:03Z</time>
					</trkpt>
					<trkpt lat="46.758420" lon="5.245740">
						<ele>199</ele>
						<time>2020-04-30T17:05:38Z</time>
					</trkpt>
					<trkpt lat="46.758740" lon="5.246940">
						<ele>200</ele>
						<time>2020-04-30T17:07:36Z</time>
					</trkpt>
					<trkpt lat="46.759120" lon="5.248350">
						<ele>200</ele>
						<time>2020-04-30T17:09:54Z</time>
					</trkpt>
					<trkpt lat="46.759440" lon="5.249550">
						<ele>201</ele>
						<time>2020-04-30T17:11:52Z</time>
					</trkpt>
					<trkpt lat="46.759820" lon="5.250950">
						<ele>200</ele>
						<time>2020-04-30T17:14:10Z</time>
					</trkpt>
					<trkpt lat="46.760240" lon="5.252510">
						<ele>199</ele>
						<time>2020-04-30T17:16:43Z</time>
					</trkpt>
					<trkpt lat="46.760320" lon="5.252810">
						<ele>199</ele>
						<time>2020-04-30T17:17:12Z</time>
					</trkpt>
					<trkpt lat="46.759920" lon="5.254770">
						<ele>202</ele>
						<time>2020-04-30T17:20:19Z</time>
					</trkpt>
					<trkpt lat="46.759690" lon="5.255070">
						<ele>202</ele>
						<time>2020-04-30T17:21:01Z</time>
					</trkpt>
					<trkpt lat="46.759370" lon="5.255740">
						<ele>199</ele>
						<time>2020-04-30T17:22:15Z</time>
					</trkpt>
					<trkpt lat="46.759270" lon="5.255850">
						<ele>198</ele>
						<time>2020-04-30T17:22:32Z</time>
					</trkpt>
					<trkpt lat="46.759080" lon="5.255870">
						<ele>198</ele>
						<time>2020-04-30T17:22:57Z</time>
					</trkpt>
					<trkpt lat="46.758990" lon="5.255930">
						<ele>198</ele>
						<time>2020-04-30T17:23:11Z</time>
					</trkpt>
					<trkpt lat="46.758820" lon="5.256260">
						<ele>199</ele>
						<time>2020-04-30T17:23:48Z</time>
					</trkpt>
					<trkpt lat="46.758660" lon="5.256810">
						<ele>200</ele>
						<time>2020-04-30T17:24:43Z</time>
					</trkpt>
					<trkpt lat="46.757930" lon="5.257050">
						<ele>203</ele>
						<time>2020-04-30T17:26:23Z</time>
					</trkpt>
					<trkpt lat="46.757860" lon="5.257070">
						<ele>203</ele>
						<time>2020-04-30T17:26:32Z</time>
					</trkpt>
					<trkpt lat="46.757510" lon="5.257160">
						<ele>205</ele>
						<time>2020-04-30T17:27:20Z</time>
					</trkpt>
					<trkpt lat="46.757510" lon="5.257310">
						<ele>205</ele>
						<time>2020-04-30T17:27:33Z</time>
					</trkpt>
					<trkpt lat="46.757240" lon="5.258760">
						<ele>206</ele>
						<time>2020-04-30T17:29:51Z</time>
					</trkpt>
					<trkpt lat="46.757200" lon="5.259580">
						<ele>205</ele>
						<time>2020-04-30T17:31:06Z</time>
					</trkpt>
					<trkpt lat="46.757210" lon="5.260080">
						<ele>205</ele>
						<time>2020-04-30T17:31:52Z</time>
					</trkpt>
					<trkpt lat="46.757110" lon="5.260400">
						<ele>205</ele>
						<time>2020-04-30T17:32:24Z</time>
					</trkpt>
					<trkpt lat="46.756890" lon="5.260790">
						<ele>204</ele>
						<time>2020-04-30T17:33:10Z</time>
					</trkpt>
					<trkpt lat="46.756700" lon="5.261200">
						<ele>202</ele>
						<time>2020-04-30T17:33:55Z</time>
					</trkpt>
					<trkpt lat="46.756540" lon="5.261360">
						<ele>202</ele>
						<time>2020-04-30T17:34:21Z</time>
					</trkpt>
					<trkpt lat="46.755830" lon="5.261470">
						<ele>201</ele>
						<time>2020-04-30T17:35:56Z</time>
					</trkpt>
					<trkpt lat="46.755780" lon="5.262350">
						<ele>200</ele>
						<time>2020-04-30T17:37:17Z</time>
					</trkpt>
					<trkpt lat="46.755540" lon="5.263890">
						<ele>195</ele>
						<time>2020-04-30T17:39:42Z</time>
					</trkpt>
					<trkpt lat="46.755360" lon="5.264570">
						<ele>196</ele>
						<time>2020-04-30T17:40:48Z</time>
					</trkpt>
					<trkpt lat="46.755000" lon="5.265130">
						<ele>198</ele>
						<time>2020-04-30T17:41:58Z</time>
					</trkpt>
					<trkpt lat="46.754670" lon="5.265750">
						<ele>200</ele>
						<time>2020-04-30T17:43:10Z</time>
					</trkpt>
					<trkpt lat="46.754140" lon="5.267060">
						<ele>203</ele>
						<time>2020-04-30T17:45:29Z</time>
					</trkpt>
					<trkpt lat="46.754020" lon="5.267230">
						<ele>203</ele>
						<time>2020-04-30T17:45:52Z</time>
					</trkpt>
					<trkpt lat="46.754370" lon="5.267850">
						<ele>202</ele>
						<time>2020-04-30T17:47:05Z</time>
					</trkpt>
					<trkpt lat="46.755210" lon="5.268270">
						<ele>200</ele>
						<time>2020-04-30T17:49:04Z</time>
					</trkpt>
					<trkpt lat="46.755330" lon="5.268340">
						<ele>200</ele>
						<time>2020-04-30T17:49:21Z</time>
					</trkpt>
					<trkpt lat="46.755470" lon="5.268470">
						<ele>200</ele>
						<time>2020-04-30T17:49:43Z</time>
					</trkpt>
					<trkpt lat="46.755510" lon="5.268640">
						<ele>200</ele>
						<time>2020-04-30T17:49:59Z</time>
					</trkpt>
					<trkpt lat="46.755480" lon="5.268810">
						<ele>200</ele>
						<time>2020-04-30T17:50:15Z</time>
					</trkpt>
					<trkpt lat="46.755240" lon="5.269570">
						<ele>199</ele>
						<time>2020-04-30T17:51:32Z</time>
					</trkpt>
					<trkpt lat="46.754950" lon="5.270280">
						<ele>199</ele>
						<time>2020-04-30T17:52:48Z</time>
					</trkpt>
					<trkpt lat="46.754340" lon="5.271420">
						<ele>195</ele>
						<time>2020-04-30T17:55:00Z</time>
					</trkpt>
					<trkpt lat="46.753980" lon="5.272100">
						<ele>194</ele>
						<time>2020-04-30T17:56:18Z</time>
					</trkpt>
					<trkpt lat="46.753480" lon="5.273230">
						<ele>195</ele>
						<time>2020-04-30T17:58:21Z</time>
					</trkpt>
					<trkpt lat="46.753300" lon="5.273620">
						<ele>195</ele>
						<time>2020-04-30T17:59:04Z</time>
					</trkpt>
					<trkpt lat="46.753070" lon="5.274430">
						<ele>196</ele>
						<time>2020-04-30T18:00:25Z</time>
					</trkpt>
					<trkpt lat="46.752920" lon="5.274630">
						<ele>196</ele>
						<time>2020-04-30T18:00:52Z</time>
					</trkpt>
					<trkpt lat="46.752760" lon="5.274630">
						<ele>196</ele>
						<time>2020-04-30T18:01:13Z</time>
					</trkpt>
					<trkpt lat="46.751960" lon="5.274140">
						<ele>198</ele>
						<time>2020-04-30T18:03:09Z</time>
					</trkpt>
					<trkpt lat="46.751150" lon="5.273640">
						<ele>201</ele>
						<time>2020-04-30T18:05:06Z</time>
					</trkpt>
					<trkpt lat="46.751060" lon="5.273590">
						<ele>202</ele>
						<time>2020-04-30T18:05:19Z</time>
					</trkpt>
					<trkpt lat="46.750450" lon="5.273070">
						<ele>207</ele>
						<time>2020-04-30T18:06:53Z</time>
					</trkpt>
					<trkpt lat="46.749860" lon="5.272560">
						<ele>210</ele>
						<time>2020-04-30T18:08:25Z</time>
					</trkpt>
					<trkpt lat="46.749780" lon="5.272500">
						<ele>210</ele>
						<time>2020-04-30T18:08:37Z</time>
					</trkpt>
					<trkpt lat="46.749660" lon="5.272460">
						<ele>210</ele>
						<time>2020-04-30T18:08:53Z</time>
					</trkpt>
					<trkpt lat="46.749510" lon="5.272420">
						<ele>210</ele>
						<time>2020-04-30T18:09:14Z</time>
					</trkpt>
					<trkpt lat="46.749380" lon="5.272430">
						<ele>210</ele>
						<time>2020-04-30T18:09:31Z</time>
					</trkpt>
					<trkpt lat="46.749270" lon="5.272450">
						<ele>210</ele>
						<time>2020-04-30T18:09:46Z</time>
					</trkpt>
					<trkpt lat="46.749120" lon="5.272510">
						<ele>211</ele>
						<time>2020-04-30T18:10:06Z</time>
					</trkpt>
					<trkpt lat="46.748890" lon="5.272600">
						<ele>210</ele>
						<time>2020-04-30T18:10:38Z</time>
					</trkpt>
					<trkpt lat="46.748620" lon="5.272710">
						<ele>210</ele>
						<time>2020-04-30T18:11:16Z</time>
					</trkpt>
					<trkpt lat="46.748510" lon="5.272720">
						<ele>209</ele>
						<time>2020-04-30T18:11:30Z</time>
					</trkpt>
					<trkpt lat="46.748370" lon="5.272690">
						<ele>209</ele>
						<time>2020-04-30T18:11:49Z</time>
					</trkpt>
					<trkpt lat="46.748150" lon="5.272550">
						<ele>208</ele>
						<time>2020-04-30T18:12:21Z</time>
					</trkpt>
					<trkpt lat="46.747760" lon="5.272260">
						<ele>206</ele>
						<time>2020-04-30T18:13:20Z</time>
					</trkpt>
					<trkpt lat="46.746990" lon="5.271710">
						<ele>205</ele>
						<time>2020-04-30T18:15:14Z</time>
					</trkpt>
					<trkpt lat="46.746720" lon="5.271500">
						<ele>205</ele>
						<time>2020-04-30T18:15:55Z</time>
					</trkpt>
					<trkpt lat="46.746040" lon="5.270910">
						<ele>204</ele>
						<time>2020-04-30T18:17:40Z</time>
					</trkpt>
					<trkpt lat="46.745760" lon="5.270690">
						<ele>204</ele>
						<time>2020-04-30T18:18:23Z</time>
					</trkpt>
					<trkpt lat="46.745680" lon="5.270630">
						<ele>204</ele>
						<time>2020-04-30T18:18:35Z</time>
					</trkpt>
					<trkpt lat="46.745660" lon="5.270560">
						<ele>204</ele>
						<time>2020-04-30T18:18:42Z</time>
					</trkpt>
					<trkpt lat="46.745640" lon="5.270480">
						<ele>204</ele>
						<time>2020-04-30T18:18:50Z</time>
					</trkpt>
					<trkpt lat="46.745650" lon="5.270380">
						<ele>204</ele>
						<time>2020-04-30T18:18:59Z</time>
					</trkpt>
					<trkpt lat="46.745760" lon="5.269980">
						<ele>205</ele>
						<time>2020-04-30T18:19:38Z</time>
					</trkpt>
					<trkpt lat="46.745870" lon="5.269500">
						<ele>206</ele>
						<time>2020-04-30T18:20:25Z</time>
					</trkpt>
					<trkpt lat="46.745890" lon="5.269320">
						<ele>206</ele>
						<time>2020-04-30T18:20:41Z</time>
					</trkpt>
					<trkpt lat="46.745890" lon="5.269140">
						<ele>206</ele>
						<time>2020-04-30T18:20:58Z</time>
					</trkpt>
					<trkpt lat="46.745810" lon="5.268290">
						<ele>206</ele>
						<time>2020-04-30T18:22:16Z</time>
					</trkpt>
					<trkpt lat="46.745760" lon="5.268080">
						<ele>206</ele>
						<time>2020-04-30T18:22:36Z</time>
					</trkpt>
					<trkpt lat="46.745660" lon="5.267670">
						<ele>205</ele>
						<time>2020-04-30T18:23:16Z</time>
					</trkpt>
					<trkpt lat="46.745720" lon="5.267280">
						<ele>205</ele>
						<time>2020-04-30T18:23:53Z</time>
					</trkpt>
					<trkpt lat="46.745830" lon="5.267030">
						<ele>205</ele>
						<time>2020-04-30T18:24:20Z</time>
					</trkpt>
					<trkpt lat="46.746230" lon="5.266560">
						<ele>206</ele>
						<time>2020-04-30T18:25:29Z</time>
					</trkpt>
					<trkpt lat="46.746320" lon="5.266430">
						<ele>206</ele>
						<time>2020-04-30T18:25:45Z</time>
					</trkpt>
					<trkpt lat="46.746370" lon="5.266290">
						<ele>206</ele>
						<time>2020-04-30T18:26:00Z</time>
					</trkpt>
					<trkpt lat="46.746470" lon="5.265930">
						<ele>205</ele>
						<time>2020-04-30T18:26:35Z</time>
					</trkpt>
					<trkpt lat="46.746520" lon="5.265660">
						<ele>206</ele>
						<time>2020-04-30T18:27:01Z</time>
					</trkpt>
					<trkpt lat="46.746670" lon="5.264600">
						<ele>206</ele>
						<time>2020-04-30T18:28:40Z</time>
					</trkpt>
					<trkpt lat="46.746750" lon="5.264120">
						<ele>207</ele>
						<time>2020-04-30T18:29:25Z</time>
					</trkpt>
					<trkpt lat="46.746920" lon="5.263300">
						<ele>209</ele>
						<time>2020-04-30T18:30:43Z</time>
					</trkpt>
					<trkpt lat="46.747170" lon="5.262290">
						<ele>208</ele>
						<time>2020-04-30T18:32:22Z</time>
					</trkpt>
					<trkpt lat="46.747250" lon="5.262020">
						<ele>208</ele>
						<time>2020-04-30T18:32:49Z</time>
					</trkpt>
					<trkpt lat="46.747340" lon="5.261790">
						<ele>208</ele>
						<time>2020-04-30T18:33:13Z</time>
					</trkpt>
					<trkpt lat="46.747460" lon="5.261560">
						<ele>209</ele>
						<time>2020-04-30T18:33:39Z</time>
					</trkpt>
					<trkpt lat="46.747600" lon="5.261350">
						<ele>209</ele>
						<time>2020-04-30T18:34:06Z</time>
					</trkpt>
					<trkpt lat="46.747720" lon="5.261140">
						<ele>210</ele>
						<time>2020-04-30T18:34:31Z</time>
					</trkpt>
					<trkpt lat="46.747790" lon="5.260960">
						<ele>210</ele>
						<time>2020-04-30T18:34:50Z</time>
					</trkpt>
					<trkpt lat="46.748100" lon="5.259740">
						<ele>209</ele>
						<time>2020-04-30T18:36:49Z</time>
					</trkpt>
					<trkpt lat="46.748120" lon="5.259590">
						<ele>209</ele>
						<time>2020-04-30T18:37:03Z</time>
					</trkpt>
					<trkpt lat="46.748110" lon="5.259320">
						<ele>209</ele>
						<time>2020-04-30T18:37:28Z</time>
					</trkpt>
					<trkpt lat="46.748000" lon="5.258730">
						<ele>209</ele>
						<time>2020-04-30T18:38:23Z</time>
					</trkpt>
					<trkpt lat="46.747980" lon="5.258440">
						<ele>209</ele>
						<time>2020-04-30T18:38:50Z</time>
					</trkpt>
					<trkpt lat="46.747930" lon="5.257730">
						<ele>208</ele>
						<time>2020-04-30T18:39:55Z</time>
					</trkpt>
					<trkpt lat="46.747880" lon="5.256990">
						<ele>209</ele>
						<time>2020-04-30T18:41:03Z</time>
					</trkpt>
					<trkpt lat="46.747860" lon="5.256540">
						<ele>209</ele>
						<time>2020-04-30T18:41:45Z</time>
					</trkpt>
					<trkpt lat="46.748210" lon="5.256850">
						<ele>209</ele>
						<time>2020-04-30T18:42:39Z</time>
					</trkpt>
					<trkpt lat="46.748790" lon="5.257070">
						<ele>208</ele>
						<time>2020-04-30T18:43:59Z</time>
					</trkpt>
					<trkpt lat="46.749110" lon="5.257060">
						<ele>208</ele>
						<time>2020-04-30T18:44:42Z</time>
					</trkpt>
					<trkpt lat="46.749580" lon="5.256980">
						<ele>208</ele>
						<time>2020-04-30T18:45:45Z</time>
					</trkpt>
					<trkpt lat="46.750190" lon="5.256980">
						<ele>209</ele>
						<time>2020-04-30T18:47:06Z</time>
					</trkpt>
					<trkpt lat="46.750710" lon="5.256990">
						<ele>210</ele>
						<time>2020-04-30T18:48:16Z</time>
					</trkpt>
					<trkpt lat="46.751000" lon="5.254970">
						<ele>209</ele>
						<time>2020-04-30T18:51:25Z</time>
					</trkpt>
					<trkpt lat="46.751240" lon="5.253860">
						<ele>208</ele>
						<time>2020-04-30T18:53:11Z</time>
					</trkpt>
					<trkpt lat="46.751350" lon="5.253600">
						<ele>208</ele>
						<time>2020-04-30T18:53:39Z</time>
					</trkpt>
					<trkpt lat="46.752080" lon="5.252240">
						<ele>208</ele>
						<time>2020-04-30T18:56:17Z</time>
					</trkpt>
					<trkpt lat="46.752180" lon="5.252190">
						<ele>209</ele>
						<time>2020-04-30T18:56:31Z</time>
					</trkpt>
					<trkpt lat="46.752270" lon="5.250430">
						<ele>208</ele>
						<time>2020-04-30T18:59:12Z</time>
					</trkpt>
					<trkpt lat="46.752350" lon="5.248690">
						<ele>207</ele>
						<time>2020-04-30T19:01:52Z</time>
					</trkpt>
					<trkpt lat="46.752440" lon="5.246920">
						<ele>210</ele>
						<time>2020-04-30T19:04:34Z</time>
					</trkpt>
					</trkseg>
				</trk>
			</gpx>